Salem, OR

6:40 AM PDT on September 22, 2014 (GMT -0700)
Center & Cordon NE | Change Station
CLOSE
Current Station
Personal Weather Station
Location: Salem, OR
Elevation: 210 ft
Nearby Weather Stations

Elev 210 ft 44.94 °N, 122.96 °W | Updated 10 seconds ago

Overcast
Overcast
60.3 °F
Feels Like 60.3 °F
N
2.0
Wind Variable Wind from South
Gusts 3.5 mph

Today
High -- | Low -- °F
--% Chance of Precip.
Yesterday
High -- | Low -- °F
Precip. -- in
6:59 AM 7:09 PM
Waning Crescent, 3% visible
Pressure 30.00 in
Visibility 10.0 miles
Clouds Overcast 2300 ft
Dew Point 55 °F
Humidity 83%
Rainfall 0.00 in
Snow Depth 0 in , 2 in , 0 in
UV 0 out of 12
Pollen 1.80 out of 12
Air Quality Not available.
Flu Activity Not available.
METAR KSLE 221256Z AUTO 18005KT 10SM OVC023 16/12 A3000 RMK AO2 SLP157 T01610122

More Conditions Fewer Conditions

Pressure 30.00 in
Visibility 10.0 miles
Clouds Overcast 2300 ft
Dew Point 55 °F
Humidity 83%
Rainfall 0.00 in
Snow Depth 0 in , 2 in , 0 in
UV 0 out of 12
Pollen 1.80 out of 12
Air Quality Not available.
Flu Activity Not available.
METAR KSLE 221256Z AUTO 18005KT 10SM OVC023 16/12 A3000 RMK AO2 SLP157 T01610122

More Conditions Fewer Conditions

10-Day Weather Forecast

Almanac

Astronomy

Sep. 22, 2014 Rise Set
Actual Time 6:59 AM PDT 7:09 PM PDT
Civil Twilight 6:29 AM PDT 7:38 PM PDT
Nautical Twilight 5:55 AM PDT 8:12 PM PDT
Astronomical Twilight 5:20 AM PDT 8:47 PM PDT
Moon 5:30 AM PDT 6:20 PM PDT
Length of Visible Light 13h 08m
Length of Day
12h 10m
Tomorrow will be 3m 6s shorter.
Waning Crescent, 3% of the Moon is Illuminated
Today
Waning Crescent
Sep 24
New
Oct 1
First Quarter
Oct 8
Full
Oct 15
Last Quarter

Today's Extremes

State Highs State Lows

Community

WunderPhotos

Upload Photos

1,755,436 photos uploaded!

WunderBlogs® & News

Nearby

Snow Depth

Station Depth Elevation
Salt Creek Falls 0 in 4000 ft
Lucky Strike 2 in 5050 ft
Cascade Summit 0 in 4880 ft
Roaring River 0 in 4900 ft
Fish Lake 0 in 4665 ft

Earthquake Activity

City Distance Mag. Time & Date
No recent earthquake activity has been reported nearby.
Minimum magnitude displayed is 2.5.

Coastal Water Temperatures

Place Temperature
No Stations Reporting

Nearby Weather Stations